Harwell, United Kingdom
Current Conditions -  °F | °C
As of 4:50 PM on Saturday 25 Oct 2014 (Local Time) from EGUB Reporting Station
Broken Clouds Broken Clouds  
Wind Chill: 57°   Ceiling: 4500
Heat Index: 57°   Visibility: 6mi
Dew Point: 46°   Wind: 10mph
Humidity: 67%   Direction: 190°S
Pressure: 30.06"   Gusts: NA
Location:  51.6°N, 1.29°W
Report Text: EGUB 251550Z 19009KT 9999 BKN045 14/08 Q1018 BLU
Loading
Personal Weather Stations






























Interactive Weather Map
Tropical Storm Tracking
New forecast layout! Learn more

10-Day Weather Forecast

Advertisements
Track Severe Weather on mobile